Time;durP1;ratioP1;P1;durP2;ratioP2;P2;SDS_P1;SDS_P2;PMS_P1;PMS_P2;Temp;Humidity;BMP_temperature;BMP_pressure;BME280_temperature;BME280_humidity;BME280_pressure;Samples;Min_cycle;Max_cycle;Signal;HPM_P1;HPM_P2
2022/02/11 00:07:44;;;;;;;5.30;3.42;;;;;;;6.93;63.60;97005.88;5053497;28;20057;-80
2022/02/11 00:10:13;;;;;;;5.63;3.75;;;;;;;6.93;64.06;97007.66;5054058;28;20408;-80
2022/02/11 00:12:41;;;;;;;5.13;4.60;;;;;;;6.96;63.60;97000.38;5054177;28;20060;-80
2022/02/11 00:17:54;;;;;;;5.07;4.03;;;;;;;6.92;63.54;96999.06;5067930;28;20052;-81
2022/02/11 00:20:23;;;;;;;5.30;4.03;;;;;;;6.92;63.55;97009.44;5067769;28;20053;-81
2022/02/11 00:22:51;;;;;;;5.85;4.13;;;;;;;6.95;64.18;97003.13;5068216;28;20150;-81
2022/02/11 00:25:21;;;;;;;5.00;4.35;;;;;;;6.99;64.19;96997.50;5062913;28;20061;-80
2022/02/11 00:33:24;;;;;;;4.80;4.00;;;;;;;7.12;66.88;96994.50;5051222;28;20521;-80
2022/02/11 00:35:55;;;;;;;4.93;4.20;;;;;;;7.18;67.51;96988.72;5053028;28;20049;-80
2022/02/11 00:38:32;;;;;;;5.83;4.20;;;;;;;7.24;66.77;96984.72;5053365;28;20556;-80
2022/02/11 00:47:17;;;;;;;7.75;5.30;;;;;;;7.31;65.26;96974.56;5052713;28;20518;-80
2022/02/11 01:03:34;;;;;;;7.95;5.80;;;;;;;7.30;66.97;96978.91;5052956;28;20079;-80
2022/02/11 01:06:02;;;;;;;6.53;5.20;;;;;;;7.26;67.33;96972.44;5052412;28;20053;-80
2022/02/11 01:08:29;;;;;;;8.35;5.72;;;;;;;7.22;66.14;96961.53;5053157;28;20534;-80
2022/02/11 01:10:58;;;;;;;9.77;6.05;;;;;;;7.21;66.54;96964.25;5052486;28;20056;-80
2022/02/11 01:13:27;;;;;;;9.95;6.60;;;;;;;7.25;68.33;96967.38;5052952;28;20076;-80
2022/02/11 01:16:02;;;;;;;14.98;8.18;;;;;;;7.29;67.07;96968.72;5052565;28;20053;-80
2022/02/11 01:18:30;;;;;;;13.35;8.23;;;;;;;7.31;68.97;96967.59;5052644;28;20044;-80
2022/02/11 01:21:01;;;;;;;15.05;9.27;;;;;;;7.32;66.83;96960.59;5052810;28;20083;-80
2022/02/11 01:23:45;;;;;;;18.77;10.07;;;;;;;7.27;65.95;96966.25;5052635;28;20461;-79
2022/02/11 01:26:28;;;;;;;15.60;9.52;;;;;;;7.29;68.46;96966.91;5052530;28;20053;-80
2022/02/11 01:29:23;;;;;;;20.10;12.25;;;;;;;7.35;70.65;96971.50;5052557;28;20052;-80
2022/02/11 01:31:57;;;;;;;15.75;9.38;;;;;;;7.42;71.20;96971.72;5052378;28;20045;-81
2022/02/11 01:37:22;;;;;;;9.25;6.50;;;;;;;7.38;71.04;96966.00;5050396;28;20053;-80
2022/02/11 01:51:28;;;;;;;6.72;4.43;;;;;;;7.46;69.43;96974.81;5031821;28;20403;-80
2022/02/11 01:54:04;;;;;;;6.18;4.70;;;;;;;7.50;70.27;96974.38;5052625;28;20049;-81
2022/02/11 01:56:44;;;;;;;7.45;4.90;;;;;;;7.53;70.38;96981.03;5051907;28;20525;-80
2022/02/11 01:59:48;;;;;;;9.07;5.30;;;;;;;7.52;68.41;96984.56;5052425;28;20045;-80
2022/02/11 02:05:27;;;;;;;6.63;5.03;;;;;;;7.48;67.58;96984.09;5052009;28;20056;-81
2022/02/11 02:13:52;;;;;;;7.57;5.90;;;;;;;7.46;70.75;96980.00;5052109;28;20048;-80
2022/02/11 02:19:52;;;;;;;7.03;5.18;;;;;;;7.47;70.85;96977.25;5051895;28;20422;-80
2022/02/11 02:25:06;;;;;;;9.50;6.75;;;;;;;7.40;68.49;96971.84;5049979;28;20107;-79
2022/02/11 02:27:54;;;;;;;11.27;7.32;;;;;;;7.38;69.61;96968.59;5051704;28;20064;-80
2022/02/11 02:39:17;;;;;;;8.98;6.85;;;;;;;7.32;70.28;96968.38;5042343;28;20049;-81
2022/02/11 02:50:19;;;;;;;10.20;6.70;;;;;;;7.30;70.44;96960.75;5055324;28;20045;-80
2022/02/11 02:58:28;;;;;;;9.85;6.22;;;;;;;7.32;70.77;96960.59;5055183;28;20064;-80
2022/02/11 03:15:35;;;;;;;6.30;4.97;;;;;;;7.15;69.40;96957.91;5064791;28;20049;-80
2022/02/11 03:34:53;;;;;;;5.53;4.20;;;;;;;7.07;68.79;96970.00;5010047;28;20050;-85
2022/02/11 03:51:33;;;;;;;5.63;4.60;;;;;;;6.81;69.58;97014.84;5047023;28;20065;-82
2022/02/11 03:57:29;;;;;;;6.22;4.28;;;;;;;6.74;69.08;97021.59;5046707;28;20279;-86
2022/02/11 04:53:21;;;;;;;4.47;3.30;;;;;;;6.14;72.25;97113.53;5042616;28;20049;-89
2022/02/11 04:55:43;;;;;;;2.67;2.42;;;;;;;6.09;72.50;97117.50;5043166;28;20054;-82
2022/02/11 05:00:56;;;;;;;2.80;2.50;;;;;;;6.01;72.66;97128.53;5041695;28;20415;-82
2022/02/11 05:03:24;;;;;;;2.58;2.38;;;;;;;6.01;73.18;97135.50;5041355;28;20059;-80
2022/02/11 05:05:52;;;;;;;2.30;2.10;;;;;;;6.01;73.04;97138.91;5041843;28;20056;-82
2022/02/11 05:08:21;;;;;;;2.25;2.10;;;;;;;5.98;73.42;97144.38;5042669;28;20056;-81
2022/02/11 05:10:51;;;;;;;2.65;2.30;;;;;;;5.93;73.41;97160.31;5040824;28;20491;-78
2022/02/11 05:13:19;;;;;;;1.73;1.60;;;;;;;5.90;73.11;97155.41;5041003;28;20053;-81
2022/02/11 05:15:48;;;;;;;1.77;1.60;;;;;;;5.85;72.73;97154.19;5040139;28;20456;-82
2022/02/11 05:18:17;;;;;;;1.50;1.40;;;;;;;5.81;72.62;97165.75;5040448;28;20057;-81
2022/02/11 05:20:44;;;;;;;3.30;1.30;;;;;;;5.76;72.84;97171.34;5038795;28;20052;-78
2022/02/11 05:23:16;;;;;;;1.90;1.80;;;;;;;5.74;73.61;97187.00;5038840;28;20099;-80
2022/02/11 05:25:44;;;;;;;1.98;1.60;;;;;;;5.71;72.80;97189.88;5039608;28;20045;-81
2022/02/11 05:28:13;;;;;;;2.22;1.52;;;;;;;5.68;73.17;97195.31;5038446;28;20056;-79
2022/02/11 05:30:42;;;;;;;1.52;1.42;;;;;;;5.65;73.28;97200.78;5038244;28;20053;-78
2022/02/11 05:33:10;;;;;;;33.78;17.08;;;;;;;5.62;73.36;97195.88;5038092;28;20050;-78
2022/02/11 05:35:38;;;;;;;3.75;2.78;;;;;;;5.54;73.48;97208.69;5038243;28;20057;-79
2022/02/11 05:38:06;;;;;;;1.73;1.42;;;;;;;5.51;73.43;97219.28;5038235;28;20060;-79
2022/02/11 05:40:34;;;;;;;2.42;1.20;;;;;;;5.48;73.93;97209.22;5038153;28;20049;-83
2022/02/11 05:43:02;;;;;;;1.17;1.08;;;;;;;5.47;73.43;97221.34;5037603;28;20049;-80
2022/02/11 05:45:31;;;;;;;0.95;0.93;;;;;;;5.45;72.40;97219.84;5037310;28;20054;-85
2022/02/11 05:47:58;;;;;;;1.40;1.30;;;;;;;5.45;73.20;97232.78;5037398;28;20072;-83
2022/02/11 05:50:26;;;;;;;1.48;1.38;;;;;;;5.46;73.69;97242.16;5038026;28;20415;-79
2022/02/11 05:52:59;;;;;;;1.10;1.00;;;;;;;5.45;73.14;97250.91;5037170;28;20107;-81
2022/02/11 05:55:26;;;;;;;0.70;0.70;;;;;;;5.47;74.04;97260.16;5036974;28;20060;-83
2022/02/11 05:57:54;;;;;;;0.95;0.85;;;;;;;5.44;73.47;97263.00;5036751;28;20064;-78
2022/02/11 06:00:22;;;;;;;1.30;1.20;;;;;;;5.42;73.92;97266.66;5037040;28;20045;-80
2022/02/11 06:02:51;;;;;;;1.02;1.02;;;;;;;5.40;73.94;97268.56;5036530;28;20052;-78
2022/02/11 06:05:19;;;;;;;1.50;1.38;;;;;;;5.37;73.98;97280.00;5036882;28;20103;-80
2022/02/11 06:07:47;;;;;;;1.67;1.55;;;;;;;5.35;74.70;97293.06;5035788;28;20052;-81
2022/02/11 06:10:14;;;;;;;1.40;1.30;;;;;;;5.35;74.02;97298.25;5036298;28;20049;-78
2022/02/11 06:12:42;;;;;;;1.55;1.33;;;;;;;5.33;74.29;97299.31;5036087;28;20129;-78
2022/02/11 06:15:11;;;;;;;1.52;1.13;;;;;;;5.31;73.93;97315.00;5035266;28;20056;-79
2022/02/11 06:17:38;;;;;;;1.20;1.20;;;;;;;5.29;74.02;97316.06;5040976;28;20056;-78
2022/02/11 06:20:09;;;;;;;1.20;0.88;;;;;;;5.24;74.02;97324.22;5039270;28;20046;-79
2022/02/11 06:22:36;;;;;;;1.00;1.00;;;;;;;5.19;73.83;97334.13;5039028;28;20499;-78
2022/02/11 06:25:05;;;;;;;1.08;1.00;;;;;;;5.13;73.30;97339.81;5039441;28;20053;-79
2022/02/11 06:27:32;;;;;;;2.28;1.60;;;;;;;5.10;73.77;97338.31;5038612;28;20495;-78
2022/02/11 06:30:00;;;;;;;2.30;2.10;;;;;;;5.15;74.47;97343.09;5040686;28;20053;-83
2022/02/11 06:32:28;;;;;;;3.28;2.10;;;;;;;5.16;74.13;97360.28;5039051;28;20501;-77
2022/02/11 06:34:57;;;;;;;3.83;1.90;;;;;;;5.14;73.39;97362.97;5039376;28;20053;-78
2022/02/11 06:37:26;;;;;;;2.47;2.17;;;;;;;5.12;74.24;97366.66;5039006;28;20060;-77
2022/02/11 06:39:53;;;;;;;2.50;2.30;;;;;;;5.08;74.19;97367.84;5038117;28;20057;-76
2022/02/11 06:42:21;;;;;;;2.00;1.80;;;;;;;5.03;73.98;97376.00;5035788;28;20508;-77
2022/02/11 06:44:48;;;;;;;2.88;2.10;;;;;;;4.99;74.26;97394.47;5038598;28;20507;-79
2022/02/11 06:47:17;;;;;;;2.53;2.33;;;;;;;4.92;73.85;97405.31;5037377;28;20056;-78
2022/02/11 06:49:44;;;;;;;2.75;2.55;;;;;;;4.86;73.48;97411.00;5036846;28;20053;-78
2022/02/11 06:52:12;;;;;;;2.72;2.53;;;;;;;4.82;73.13;97414.78;5037122;28;20049;-80
2022/02/11 06:54:41;;;;;;;3.50;2.30;;;;;;;4.80;73.42;97424.41;5036857;28;20053;-76
2022/02/11 06:57:12;;;;;;;3.97;2.70;;;;;;;4.75;73.31;97424.78;5036046;28;20061;-77
2022/02/11 06:59:39;;;;;;;2.90;2.50;;;;;;;4.72;72.76;97421.63;5033738;28;20067;-79
2022/02/11 07:02:14;;;;;;;3.97;2.55;;;;;;;4.66;73.29;97448.00;5034746;28;20053;-78
2022/02/11 07:04:41;;;;;;;3.28;2.40;;;;;;;4.66;73.14;97448.00;5036372;28;20045;-78
2022/02/11 07:07:09;;;;;;;2.33;2.10;;;;;;;4.63;71.92;97456.78;5036440;28;20062;-78
2022/02/11 07:09:38;;;;;;;5.75;3.10;;;;;;;4.64;73.24;97465.38;5037054;28;20057;-77
2022/02/11 07:12:08;;;;;;;4.25;3.22;;;;;;;4.64;73.74;97458.44;5037447;28;20053;-76
2022/02/11 07:14:35;;;;;;;3.53;3.22;;;;;;;4.64;74.12;97467.97;5037918;28;20435;-79
2022/02/11 07:17:04;;;;;;;3.80;3.47;;;;;;;4.67;74.15;97478.03;5037695;28;20052;-77
2022/02/11 07:19:32;;;;;;;3.83;3.28;;;;;;;4.65;73.48;97485.91;5038580;28;20045;-78
2022/02/11 07:22:01;;;;;;;4.28;3.65;;;;;;;4.61;73.63;97494.03;5036096;28;20778;-77
2022/02/11 07:24:29;;;;;;;3.83;3.40;;;;;;;4.58;72.22;97497.69;5037126;28;20064;-77
2022/02/11 07:26:58;;;;;;;4.75;3.38;;;;;;;4.58;72.35;97514.97;5037755;28;20109;-77
2022/02/11 07:29:26;;;;;;;5.50;3.83;;;;;;;4.59;74.02;97519.16;5038089;28;20072;-79
2022/02/11 07:31:54;;;;;;;5.13;3.45;;;;;;;4.60;73.96;97519.06;5035820;28;20469;-76
2022/02/11 07:34:21;;;;;;;3.65;3.30;;;;;;;4.62;73.22;97521.53;5035285;28;20434;-80
2022/02/11 07:36:49;;;;;;;7.30;4.20;;;;;;;4.63;73.93;97541.25;5035405;28;20049;-78
2022/02/11 07:39:36;;;;;;;4.00;3.35;;;;;;;4.62;73.28;97542.19;5035657;28;20458;-77
2022/02/11 07:42:05;;;;;;;4.57;3.00;;;;;;;4.55;71.60;97552.19;5036057;28;20045;-77
2022/02/11 07:44:33;;;;;;;4.82;3.65;;;;;;;4.42;72.20;97560.09;5035752;28;20053;-77
2022/02/11 07:47:01;;;;;;;3.65;3.15;;;;;;;4.35;72.25;97566.66;5035752;28;20072;-78
2022/02/11 07:49:29;;;;;;;4.63;2.80;;;;;;;4.33;71.95;97574.53;5035639;28;20060;-77
2022/02/11 07:51:56;;;;;;;8.85;3.85;;;;;;;4.31;70.90;97585.94;5035474;28;20056;-78
2022/02/11 07:54:26;;;;;;;7.65;3.67;;;;;;;4.31;72.53;97588.50;5035563;28;20065;-78
2022/02/11 07:56:54;;;;;;;4.32;2.88;;;;;;;4.34;72.93;97585.69;5034961;28;20053;-77
2022/02/11 07:59:21;;;;;;;4.70;3.17;;;;;;;4.38;73.17;97599.19;5035096;28;20049;-78
2022/02/11 08:01:50;;;;;;;5.00;2.80;;;;;;;4.41;74.03;97602.34;5034762;28;20056;-77
2022/02/11 08:04:18;;;;;;;6.50;3.40;;;;;;;4.44;72.04;97607.28;5034889;28;20064;-77
2022/02/11 08:06:47;;;;;;;12.13;4.43;;;;;;;4.46;72.27;97620.91;5034606;28;20053;-77
2022/02/11 08:09:14;;;;;;;4.43;3.95;;;;;;;4.51;72.78;97623.97;5034486;28;20046;-77
2022/02/11 08:11:42;;;;;;;5.25;3.63;;;;;;;4.51;70.75;97636.06;5034605;28;20056;-77
2022/02/11 08:14:09;;;;;;;4.60;3.40;;;;;;;4.50;71.82;97652.50;5034570;28;20057;-77
2022/02/11 08:16:37;;;;;;;4.28;3.88;;;;;;;4.46;72.31;97651.91;5033882;28;20060;-76
2022/02/11 08:19:06;;;;;;;4.95;3.97;;;;;;;4.51;73.83;97665.28;5034401;28;20061;-77
2022/02/11 08:21:34;;;;;;;5.20;3.80;;;;;;;4.53;72.01;97660.03;5034356;28;20055;-77
2022/02/11 08:24:02;;;;;;;5.47;3.72;;;;;;;4.54;71.27;97665.06;5034750;28;20049;-76
2022/02/11 08:26:30;;;;;;;6.28;5.25;;;;;;;4.58;73.05;97672.59;5034684;28;20056;-77
2022/02/11 08:28:57;;;;;;;7.38;4.85;;;;;;;4.63;73.94;97675.63;5034843;28;20049;-76
2022/02/11 08:31:25;;;;;;;6.88;4.30;;;;;;;4.66;73.26;97676.22;5036229;28;20129;-77
2022/02/11 08:33:53;;;;;;;5.35;3.88;;;;;;;4.66;71.44;97683.16;5037855;28;20049;-79
2022/02/11 08:36:22;;;;;;;8.23;4.22;;;;;;;4.63;71.90;97694.53;5037744;28;20057;-78
2022/02/11 08:38:49;;;;;;;5.80;4.00;;;;;;;4.67;72.78;97689.97;5037315;28;20057;-78
2022/02/11 08:41:17;;;;;;;36.47;19.23;;;;;;;4.72;72.24;97693.84;5036495;28;20049;-77
2022/02/11 08:43:45;;;;;;;39.50;21.55;;;;;;;4.78;73.55;97709.81;5037764;28;20053;-81
2022/02/11 08:46:12;;;;;;;38.50;20.02;;;;;;;4.83;73.81;97712.88;5037614;28;20103;-77
2022/02/11 08:48:40;;;;;;;10.15;4.60;;;;;;;4.87;73.21;97717.69;5037828;28;20045;-80
2022/02/11 08:51:08;;;;;;;6.55;4.10;;;;;;;4.88;72.07;97724.50;5037755;28;20057;-78
2022/02/11 08:53:37;;;;;;;8.55;3.97;;;;;;;4.93;72.25;97726.72;5037540;28;20458;-78
2022/02/11 08:56:06;;;;;;;5.43;3.25;;;;;;;5.01;70.13;97719.22;5036889;28;20060;-78
2022/02/11 08:58:35;;;;;;;5.05;3.90;;;;;;;5.03;70.52;97727.69;5038352;28;20554;-78
2022/02/11 09:01:04;;;;;;;4.63;3.65;;;;;;;5.07;70.26;97741.16;5037863;28;20462;-78
2022/02/11 09:03:33;;;;;;;4.65;3.60;;;;;;;5.09;70.38;97750.44;5037881;28;20144;-77
2022/02/11 09:06:03;;;;;;;6.85;4.13;;;;;;;5.13;70.52;97753.63;5036981;28;20049;-78
2022/02/11 09:08:33;;;;;;;3.90;3.30;;;;;;;5.14;70.22;97760.47;5038059;28;20586;-78
2022/02/11 09:11:05;;;;;;;4.65;3.63;;;;;;;5.13;69.54;97761.41;5037001;28;20055;-76
2022/02/11 09:13:33;;;;;;;6.32;3.63;;;;;;;5.14;70.25;97760.47;5034935;28;20049;-77
2022/02/11 09:16:01;;;;;;;5.35;3.50;;;;;;;5.14;70.09;97768.22;5034777;28;20064;-77
2022/02/11 09:18:28;;;;;;;6.05;3.92;;;;;;;5.13;69.68;97769.97;5034887;28;20053;-76
2022/02/11 09:20:57;;;;;;;5.70;3.45;;;;;;;5.15;70.51;97769.84;5035271;28;20049;-79
2022/02/11 09:23:25;;;;;;;5.35;3.30;;;;;;;5.19;69.07;97773.03;5035498;28;20052;-79
2022/02/11 09:25:53;;;;;;;5.78;3.95;;;;;;;5.21;70.28;97773.75;5034713;28;20045;-76
2022/02/11 09:28:22;;;;;;;6.05;3.78;;;;;;;5.24;70.76;97774.31;5035321;28;20049;-76
2022/02/11 09:30:49;;;;;;;5.50;3.63;;;;;;;5.27;71.02;97781.84;5034272;28;20046;-76
2022/02/11 09:33:17;;;;;;;6.60;4.07;;;;;;;5.41;71.57;97778.19;5033813;28;20053;-78
2022/02/11 09:35:49;;;;;;;4.78;3.50;;;;;;;5.68;68.93;97784.72;5032624;28;20068;-76
2022/02/11 09:38:18;;;;;;;3.75;3.10;;;;;;;5.97;68.20;97791.00;5033203;28;20041;-76
2022/02/11 09:40:51;;;;;;;5.15;3.50;;;;;;;6.19;68.86;97804.81;5031168;28;20061;-79
2022/02/11 09:43:19;;;;;;;3.72;2.53;;;;;;;6.40;65.80;97812.59;5030854;28;20049;-77
2022/02/11 09:45:49;;;;;;;7.85;2.90;;;;;;;6.59;65.48;97801.56;5031261;28;20057;-80
2022/02/11 09:48:16;;;;;;;6.90;3.00;;;;;;;6.78;66.50;97808.63;5031613;28;20512;-76
2022/02/11 09:50:42;;;;;;;3.35;3.00;;;;;;;7.00;65.76;97805.06;5034982;28;20483;-77
2022/02/11 09:53:15;;;;;;;;;;;;;;;7.26;60.77;97815.81;5036806;28;20416;-76
2022/02/11 09:55:43;;;;;;;4.28;2.50;;;;;;;7.37;64.87;97818.31;5038523;28;19943;-76
2022/02/11 09:58:13;;;;;;;3.50;2.75;;;;;;;7.46;63.12;97808.91;5038619;28;20061;-76
2022/02/11 10:00:44;;;;;;;4.13;2.65;;;;;;;7.62;61.41;97803.22;5041529;28;20053;-77
2022/02/11 10:03:22;;;;;;;3.15;2.35;;;;;;;7.85;62.13;97801.22;5040020;28;20080;-78
2022/02/11 10:05:56;;;;;;;4.93;2.40;;;;;;;8.00;60.16;97809.41;5039782;28;20056;-76
2022/02/11 10:08:25;;;;;;;6.65;3.53;;;;;;;8.03;58.78;97803.97;5040408;28;20065;-78
2022/02/11 10:10:54;;;;;;;4.45;2.63;;;;;;;8.21;60.38;97812.72;5040822;28;20049;-76
2022/02/11 10:13:25;;;;;;;5.68;2.70;;;;;;;8.58;60.75;97819.03;5040306;28;20045;-77
2022/02/11 10:15:56;;;;;;;3.67;2.35;;;;;;;8.85;58.00;97826.06;5038448;28;20054;-76
2022/02/11 10:18:28;;;;;;;3.35;2.28;;;;;;;8.99;57.36;97838.66;5037816;28;20054;-77
2022/02/11 10:20:57;;;;;;;3.42;2.17;;;;;;;9.32;57.57;97833.06;5038464;28;20085;-77
2022/02/11 10:23:26;;;;;;;6.68;3.10;;;;;;;9.69;55.49;97840.84;5039444;28;20049;-78
2022/02/11 10:26:00;;;;;;;6.05;3.47;;;;;;;9.83;56.66;97835.13;5039752;28;20053;-77
2022/02/11 10:28:30;;;;;;;4.47;2.53;;;;;;;9.74;54.20;97840.41;5039021;28;20400;-77
2022/02/11 10:31:06;;;;;;;6.50;2.85;;;;;;;9.52;56.81;97833.81;5039753;28;20045;-77
2022/02/11 10:33:55;;;;;;;4.32;2.58;;;;;;;9.30;53.50;97830.59;5038928;28;20419;-76
2022/02/11 10:36:25;;;;;;;6.60;2.42;;;;;;;8.98;54.98;97826.59;5035496;28;20128;-76
2022/02/11 10:39:14;;;;;;;3.88;2.22;;;;;;;8.75;55.06;97830.50;5036781;28;20045;-76
2022/02/11 10:41:44;;;;;;;4.03;2.25;;;;;;;8.56;56.22;97826.94;5036035;28;20057;-78
2022/02/11 10:44:14;;;;;;;11.88;2.90;;;;;;;8.65;54.75;97830.50;5038025;28;20076;-76
2022/02/11 10:46:43;;;;;;;4.57;2.75;;;;;;;9.15;56.97;97843.25;5038166;28;20053;-78
2022/02/11 10:49:14;;;;;;;3.80;2.10;;;;;;;10.51;53.83;97831.22;5038669;28;20107;-77
2022/02/11 10:51:44;;;;;;;6.97;2.15;;;;;;;11.75;49.47;97828.34;5039988;28;20064;-78
2022/02/11 10:54:29;;;;;;;6.05;2.15;;;;;;;11.25;48.13;97835.13;5038078;28;20141;-77
2022/02/11 10:56:59;;;;;;;5.28;3.10;;;;;;;10.48;49.60;97831.53;5037836;28;20060;-76
2022/02/11 10:59:28;;;;;;;6.25;2.45;;;;;;;9.88;52.42;97834.69;5036847;28;20050;-77
2022/02/11 11:01:57;;;;;;;12.10;2.85;;;;;;;9.35;54.23;97843.19;5035960;28;20049;-77
2022/02/11 11:04:27;;;;;;;6.20;2.58;;;;;;;8.90;52.49;97842.09;5037223;28;20041;-78
2022/02/11 11:06:56;;;;;;;6.13;2.75;;;;;;;8.48;54.68;97842.41;5038512;28;20488;-77
2022/02/11 11:09:26;;;;;;;3.33;2.33;;;;;;;8.16;53.39;97846.09;5039313;28;20056;-76
2022/02/11 11:11:54;;;;;;;5.85;2.65;;;;;;;8.01;54.76;97844.84;5034964;28;20042;-76
2022/02/11 11:14:24;;;;;;;4.88;2.70;;;;;;;7.91;56.46;97857.00;5037215;28;20057;-77
2022/02/11 11:16:54;;;;;;;3.65;2.08;;;;;;;7.80;56.38;97850.94;5037490;28;20053;-78
2022/02/11 11:19:23;;;;;;;6.38;2.45;;;;;;;7.59;56.78;97860.63;5037676;28;20053;-76
2022/02/11 11:22:11;;;;;;;5.15;2.58;;;;;;;7.41;57.43;97861.25;5038158;28;20049;-77
2022/02/11 11:24:44;;;;;;;6.22;2.45;;;;;;;7.25;56.66;97866.06;5037977;28;20052;-78
2022/02/11 11:27:11;;;;;;;4.65;3.00;;;;;;;7.09;57.90;97852.75;5036604;28;20053;-78
2022/02/11 11:29:40;;;;;;;5.15;2.65;;;;;;;7.01;58.78;97849.00;5036310;28;20534;-78
2022/02/11 11:32:07;;;;;;;6.47;2.80;;;;;;;6.87;56.04;97845.94;5035939;28;20107;-77
2022/02/11 11:34:36;;;;;;;4.75;2.90;;;;;;;6.78;59.70;97843.16;5036234;28;20042;-77
2022/02/11 11:37:08;;;;;;;6.85;2.45;;;;;;;6.76;60.31;97836.47;5036018;28;20050;-77
2022/02/11 11:39:37;;;;;;;2.95;2.28;;;;;;;6.78;59.93;97847.53;5036494;28;20049;-76
2022/02/11 11:42:12;;;;;;;7.03;2.78;;;;;;;6.82;56.70;97854.09;5036478;28;20450;-76
2022/02/11 11:44:47;;;;;;;4.63;1.80;;;;;;;6.81;56.38;97852.44;5035476;28;20042;-77
2022/02/11 11:47:27;;;;;;;4.47;2.22;;;;;;;6.81;57.45;97844.66;5027840;28;20081;-76
2022/02/11 11:49:56;;;;;;;7.28;2.25;;;;;;;6.81;59.23;97847.28;5035163;28;20517;-78
2022/02/11 11:52:39;;;;;;;3.22;1.92;;;;;;;6.81;60.76;97849.84;5035713;28;20056;-76
2022/02/11 11:55:27;;;;;;;4.18;2.00;;;;;;;6.81;57.55;97847.28;5037553;28;20472;-78
2022/02/11 11:57:55;;;;;;;5.68;2.30;;;;;;;6.82;57.30;97846.31;5033299;28;20049;-76
2022/02/11 12:00:33;;;;;;;4.13;1.80;;;;;;;6.79;56.87;97849.97;5036850;28;20523;-76
2022/02/11 12:03:07;;;;;;;8.13;2.70;;;;;;;6.79;59.21;97862.94;5038311;28;20053;-75
2022/02/11 12:05:41;;;;;;;5.50;2.40;;;;;;;6.74;59.95;97861.69;5037862;28;20062;-76
2022/02/11 12:08:10;;;;;;;3.40;2.35;;;;;;;6.69;61.33;97863.81;5037038;28;20046;-77
2022/02/11 12:10:38;;;;;;;8.32;2.75;;;;;;;6.65;60.95;97857.25;5038033;28;20527;-77
2022/02/11 12:13:06;;;;;;;5.55;2.70;;;;;;;6.59;59.50;97872.38;5036868;28;20050;-76
2022/02/11 12:15:33;;;;;;;4.30;2.78;;;;;;;6.52;58.98;97879.00;5037664;28;20605;-76
2022/02/11 12:18:01;;;;;;;4.13;2.80;;;;;;;6.42;58.92;97872.09;5037436;28;20056;-79
2022/02/11 12:20:28;;;;;;;6.07;3.25;;;;;;;6.39;59.12;97870.59;5036535;28;20057;-76
2022/02/11 12:28:23;;;;;;;5.97;2.40;;;;;;;6.25;60.79;97881.22;5025085;28;20056;-75
2022/02/11 12:30:51;;;;;;;4.18;2.83;;;;;;;6.18;60.89;97884.31;5036719;28;20053;-79
2022/02/11 12:33:21;;;;;;;5.70;2.15;;;;;;;6.16;60.70;97887.97;5035634;28;20511;-76
2022/02/11 12:35:50;;;;;;;6.35;2.25;;;;;;;6.10;59.42;97888.44;5035397;28;20049;-76
2022/02/11 12:38:18;;;;;;;2.92;2.40;;;;;;;6.08;60.79;97888.59;5035463;28;20060;-76
2022/02/11 12:40:47;;;;;;;9.10;3.47;;;;;;;6.05;59.78;97904.34;5035938;28;20057;-76
2022/02/11 12:43:14;;;;;;;4.85;2.35;;;;;;;6.04;60.64;97899.31;5035760;28;20060;-78
2022/02/11 12:45:45;;;;;;;3.50;2.35;;;;;;;6.04;62.19;97900.13;5034579;28;20060;-76
2022/02/11 12:48:14;;;;;;;6.88;2.40;;;;;;;6.03;61.62;97901.06;5035146;28;20061;-76
2022/02/11 12:50:44;;;;;;;3.42;2.20;;;;;;;6.02;61.76;97894.25;5034475;28;20060;-77
2022/02/11 12:53:14;;;;;;;2.45;1.70;;;;;;;6.02;61.35;97891.66;5033821;28;20064;-75
2022/02/11 12:55:42;;;;;;;4.63;1.90;;;;;;;6.05;62.46;97890.59;5034011;28;20045;-75
2022/02/11 12:58:13;;;;;;;6.55;2.33;;;;;;;6.07;63.15;97888.69;5034257;28;20046;-80
2022/02/11 13:00:42;;;;;;;5.57;1.67;;;;;;;6.05;61.25;97885.41;5035314;28;20045;-78
2022/02/11 13:03:12;;;;;;;3.30;1.77;;;;;;;6.00;61.63;97892.72;5035765;28;20049;-77
2022/02/11 13:05:42;;;;;;;5.10;2.38;;;;;;;5.97;61.36;97888.63;5034753;28;20053;-77
2022/02/11 13:08:11;;;;;;;6.90;2.10;;;;;;;5.98;60.46;97883.28;5034617;28;20052;-78
2022/02/11 13:10:40;;;;;;;3.58;2.38;;;;;;;6.00;60.95;97875.41;5034830;28;20057;-78
2022/02/11 13:13:15;;;;;;;6.18;1.20;;;;;;;6.02;56.88;97870.94;5034631;28;20077;-76
2022/02/11 13:15:45;;;;;;;3.47;1.67;;;;;;;6.10;60.34;97872.91;5034878;28;20491;-78
2022/02/11 13:18:14;;;;;;;3.95;1.60;;;;;;;6.14;57.44;97869.13;5034244;28;20049;-78
2022/02/11 13:20:46;;;;;;;2.60;1.40;;;;;;;6.16;56.82;97872.41;5035294;28;20049;-76
2022/02/11 13:23:15;;;;;;;8.30;2.20;;;;;;;6.23;57.97;97880.53;5033532;28;20049;-76
2022/02/11 13:25:43;;;;;;;2.03;1.27;;;;;;;6.30;57.20;97869.56;5033812;28;20057;-76
2022/02/11 13:28:14;;;;;;;3.60;1.67;;;;;;;6.45;58.99;97870.09;5032582;28;20049;-77
2022/02/11 13:30:45;;;;;;;4.97;1.73;;;;;;;6.63;60.05;97869.53;5033252;28;20423;-77
2022/02/11 13:33:21;;;;;;;4.93;1.55;;;;;;;6.79;58.80;97875.09;5033667;28;20508;-77
2022/02/11 13:35:50;;;;;;;2.42;1.42;;;;;;;6.91;57.15;97870.66;5033609;28;20426;-77
2022/02/11 13:38:25;;;;;;;3.15;1.63;;;;;;;6.98;57.23;97877.00;5033778;28;20060;-76
2022/02/11 13:40:54;;;;;;;3.92;1.67;;;;;;;6.95;55.76;97880.69;5033438;28;20408;-79
2022/02/11 13:43:24;;;;;;;2.67;1.70;;;;;;;6.94;57.65;97878.19;5033792;28;20518;-75
2022/02/11 13:45:55;;;;;;;3.83;1.33;;;;;;;6.94;55.61;97883.38;5033880;28;20011;-76
2022/02/11 13:48:25;;;;;;;4.43;2.05;;;;;;;6.88;57.28;97884.72;5034851;28;20064;-78
2022/02/11 13:50:57;;;;;;;3.85;2.00;;;;;;;6.81;56.79;97880.97;5034431;28;20056;-76
2022/02/11 13:53:30;;;;;;;12.35;2.50;;;;;;;6.76;58.12;97886.56;5035433;28;20049;-76
2022/02/11 13:55:58;;;;;;;3.28;1.92;;;;;;;6.69;56.55;97887.16;5035806;28;20049;-78
2022/02/11 13:58:27;;;;;;;7.50;1.90;;;;;;;6.64;56.98;97881.53;5034740;28;20049;-78
2022/02/11 14:00:56;;;;;;;2.90;1.70;;;;;;;6.59;57.51;97884.50;5035614;28;20049;-76
2022/02/11 14:03:26;;;;;;;2.42;1.45;;;;;;;6.60;58.37;97893.91;5036363;28;20073;-77
2022/02/11 14:05:56;;;;;;;22.17;12.55;;;;;;;6.67;56.93;97902.03;5034842;28;20046;-76
2022/02/11 14:08:24;;;;;;;52.50;28.80;;;;;;;6.75;58.33;97897.03;5033915;28;20045;-77
2022/02/11 14:11:11;;;;;;;6.65;3.03;;;;;;;6.81;58.39;97904.31;5034228;28;20523;-76
2022/02/11 14:13:41;;;;;;;4.43;1.92;;;;;;;6.81;56.41;97902.53;5035218;28;20492;-77
2022/02/11 14:16:08;;;;;;;3.53;1.80;;;;;;;6.83;58.70;97897.25;5036041;28;20064;-77
2022/02/11 14:18:39;;;;;;;2.90;1.38;;;;;;;6.86;55.33;97901.34;5035769;28;20056;-76
2022/02/11 14:21:07;;;;;;;6.65;3.03;;;;;;;6.84;55.98;97904.06;5035506;28;20049;-79
2022/02/11 14:23:34;;;;;;;3.38;1.55;;;;;;;6.80;56.00;97908.69;5035678;28;20049;-77
2022/02/11 14:26:01;;;;;;;4.97;1.58;;;;;;;6.78;57.24;97900.22;5033880;28;20053;-78
2022/02/11 14:28:30;;;;;;;4.68;1.50;;;;;;;6.76;56.40;97909.06;5034031;28;20065;-77
2022/02/11 14:30:59;;;;;;;5.13;1.70;;;;;;;6.67;54.80;97910.66;5033856;28;20052;-77
2022/02/11 14:33:26;;;;;;;5.78;1.90;;;;;;;6.60;57.63;97912.91;5034176;28;20063;-77
2022/02/11 14:35:54;;;;;;;3.70;1.58;;;;;;;6.60;58.33;97905.13;5033723;28;20049;-76
2022/02/11 14:38:27;;;;;;;4.05;1.60;;;;;;;6.61;57.08;97916.31;5036669;28;20076;-77
2022/02/11 14:43:41;;;;;;;3.08;1.52;;;;;;;6.60;56.81;97918.09;5037622;28;20679;-76
2022/02/11 14:46:10;;;;;;;3.22;1.25;;;;;;;6.52;54.64;97923.06;5036911;28;20073;-80
2022/02/11 14:48:37;;;;;;;3.85;1.52;;;;;;;6.47;56.38;97925.22;5036723;28;20049;-76
2022/02/11 14:51:06;;;;;;;2.90;1.60;;;;;;;6.45;58.51;97927.13;5036348;28;20054;-77
2022/02/11 14:53:34;;;;;;;4.82;2.03;;;;;;;6.39;56.41;97940.56;5036491;28;20045;-77
2022/02/11 14:56:03;;;;;;;3.38;1.38;;;;;;;6.34;57.30;97964.25;5036447;28;20533;-76
2022/02/11 14:58:31;;;;;;;2.75;0.90;;;;;;;6.21;60.39;97991.22;5036756;28;20049;-79
2022/02/11 15:00:58;;;;;;;0.98;0.95;;;;;;;5.95;62.29;97994.91;5036814;28;20046;-78
2022/02/11 15:03:27;;;;;;;1.42;1.13;;;;;;;5.80;64.50;97995.25;5036461;28;20048;-77
2022/02/11 15:05:55;;;;;;;2.63;0.88;;;;;;;5.63;63.47;97996.53;5036039;28;20046;-78
2022/02/11 15:08:22;;;;;;;19.52;9.18;;;;;;;5.48;63.97;97993.31;5055017;22;20057;-75
2022/02/11 15:10:50;;;;;;;3.70;2.03;;;;;;;5.44;65.88;97999.66;5032828;28;20052;-76
2022/02/11 15:13:17;;;;;;;1.65;0.93;;;;;;;5.38;65.59;97990.63;5034886;28;20076;-76
2022/02/11 15:15:45;;;;;;;1.63;1.25;;;;;;;5.32;67.13;97998.81;5035321;28;20669;-75